Time;durP1;ratioP1;P1;durP2;ratioP2;P2;SDS_P1;SDS_P2;PMS_P1;PMS_P2;Temp;Humidity;BMP_temperature;BMP_pressure;BME280_temperature;BME280_humidity;BME280_pressure;Samples;Min_cycle;Max_cycle;Signal;HPM_P1;HPM_P2
2021/11/02 00:01:39;;;;;;;5.10;3.08;;;9.20;99.90;;;;;;4912851;29;20167;-65
2021/11/02 00:04:05;;;;;;;5.30;3.20;;;9.00;99.90;;;;;;4930692;29;20060;-65
2021/11/02 00:06:33;;;;;;;6.00;3.15;;;9.00;99.90;;;;;;4945663;29;20045;-65
2021/11/02 00:08:59;;;;;;;6.72;3.00;;;9.10;99.90;;;;;;4913186;29;20080;-65
2021/11/02 00:11:25;;;;;;;4.45;3.13;;;9.10;99.90;;;;;;4913430;29;20497;-65
2021/11/02 00:13:53;;;;;;;6.15;3.47;;;8.90;99.90;;;;;;4912549;29;20113;-65
2021/11/02 00:16:21;;;;;;;5.90;3.40;;;9.00;99.90;;;;;;4928091;29;20044;-65
2021/11/02 00:18:52;;;;;;;5.50;3.50;;;9.20;99.90;;;;;;4927918;29;20059;-65
2021/11/02 00:21:18;;;;;;;6.72;4.10;;;9.00;99.90;;;;;;4929607;29;20333;-65
2021/11/02 00:23:44;;;;;;;5.32;3.72;;;9.00;99.90;;;;;;4929827;29;20497;-65
2021/11/02 00:26:12;;;;;;;4.70;3.40;;;9.00;99.90;;;;;;4924912;29;20068;-65
2021/11/02 00:28:39;;;;;;;5.72;3.83;;;9.00;99.90;;;;;;4906822;29;20044;-65
2021/11/02 00:31:05;;;;;;;6.88;3.85;;;9.00;99.90;;;;;;4912214;29;20504;-65
2021/11/02 00:33:31;;;;;;;4.70;3.55;;;9.00;99.90;;;;;;4934242;29;20040;-65
2021/11/02 00:35:57;;;;;;;7.80;3.78;;;9.00;99.90;;;;;;4930033;29;20433;-65
2021/11/02 00:38:24;;;;;;;5.88;3.63;;;9.10;99.90;;;;;;4909710;29;20119;-65
2021/11/02 00:40:49;;;;;;;4.40;3.55;;;8.90;99.90;;;;;;4930531;29;20040;-65
2021/11/02 00:43:16;;;;;;;6.30;4.07;;;8.90;99.90;;;;;;4930222;29;20244;-65
2021/11/02 00:45:41;;;;;;;6.13;3.55;;;9.00;99.90;;;;;;4911661;29;20806;-65
2021/11/02 00:48:13;;;;;;;6.65;3.90;;;8.70;99.90;;;;;;4912785;29;20055;-65
2021/11/02 00:50:43;;;;;;;7.93;3.85;;;8.60;99.90;;;;;;4912999;29;20446;-65
2021/11/02 00:53:09;;;;;;;5.25;3.50;;;8.40;99.90;;;;;;4910123;29;20091;-65
2021/11/02 00:55:35;;;;;;;5.95;3.80;;;8.40;99.90;;;;;;4940586;29;20886;-65
2021/11/02 00:58:05;;;;;;;5.88;4.20;;;8.30;99.90;;;;;;4944827;29;20052;-65
2021/11/02 01:00:31;;;;;;;5.43;4.05;;;8.40;99.90;;;;;;4928583;29;20071;-65
2021/11/02 01:02:57;;;;;;;6.40;3.80;;;8.50;99.90;;;;;;4940966;29;20079;-65
2021/11/02 01:05:22;;;;;;;5.05;3.63;;;8.60;99.90;;;;;;4910079;29;20053;-65
2021/11/02 01:07:48;;;;;;;5.85;3.97;;;8.60;99.90;;;;;;4909561;29;20060;-65
2021/11/02 01:10:17;;;;;;;6.07;3.70;;;8.80;99.90;;;;;;4925159;29;20422;-65
2021/11/02 01:12:45;;;;;;;5.43;4.00;;;8.70;99.90;;;;;;4894162;29;20053;-64
2021/11/02 01:15:12;;;;;;;8.10;3.67;;;8.70;99.90;;;;;;4908748;29;20049;-65
2021/11/02 01:17:38;;;;;;;7.80;3.88;;;8.70;99.90;;;;;;4909958;29;20123;-65
2021/11/02 01:20:07;;;;;;;6.95;3.97;;;8.70;99.90;;;;;;4911040;29;20043;-65
2021/11/02 01:22:33;;;;;;;7.03;3.80;;;8.60;99.90;;;;;;4906114;29;20109;-65
2021/11/02 01:24:59;;;;;;;6.25;3.75;;;8.60;99.90;;;;;;4911237;29;20049;-65
2021/11/02 01:27:25;;;;;;;5.97;3.67;;;8.70;99.90;;;;;;4909759;29;20048;-65
2021/11/02 01:29:51;;;;;;;6.20;3.58;;;8.60;99.90;;;;;;4903463;29;20045;-65
2021/11/02 01:32:17;;;;;;;6.45;4.43;;;8.60;99.90;;;;;;4925089;29;20068;-65
2021/11/02 01:34:42;;;;;;;5.95;3.80;;;8.60;99.90;;;;;;4910236;29;20071;-65
2021/11/02 01:37:08;;;;;;;6.03;3.78;;;8.70;99.90;;;;;;4907679;29;20037;-65
2021/11/02 01:39:34;;;;;;;6.57;3.80;;;8.80;99.90;;;;;;4908554;29;20087;-65
2021/11/02 01:42:03;;;;;;;5.97;3.60;;;8.80;99.90;;;;;;4924296;29;20051;-65
2021/11/02 01:44:30;;;;;;;5.38;3.47;;;8.50;99.90;;;;;;4909891;29;20052;-65
2021/11/02 01:46:56;;;;;;;5.90;3.97;;;8.50;99.90;;;;;;4908175;29;20051;-65
2021/11/02 01:49:22;;;;;;;6.50;3.75;;;8.50;99.90;;;;;;4910641;29;20064;-65
2021/11/02 01:51:49;;;;;;;5.40;4.03;;;8.50;99.90;;;;;;4908403;29;20048;-65
2021/11/02 01:54:17;;;;;;;6.40;3.50;;;8.60;99.90;;;;;;4908787;29;20048;-65
2021/11/02 01:56:46;;;;;;;5.88;3.83;;;8.70;99.90;;;;;;4908000;29;20076;-65
2021/11/02 01:59:13;;;;;;;8.07;3.60;;;8.70;99.90;;;;;;4938158;29;20064;-65
2021/11/02 02:02:05;;;;;;;4.75;3.47;;;8.60;99.90;;;;;;4909824;29;20045;-65
2021/11/02 02:04:45;;;;;;;5.72;3.90;;;8.70;99.90;;;;;;4925319;29;20081;-65
2021/11/02 02:07:32;;;;;;;4.57;3.53;;;8.60;99.90;;;;;;4908729;29;20071;-65
2021/11/02 02:10:03;;;;;;;5.35;3.42;;;8.50;99.90;;;;;;4911261;29;20561;-65
2021/11/02 02:12:48;;;;;;;6.28;3.53;;;8.50;99.90;;;;;;4913069;29;20055;-65
2021/11/02 02:15:21;;;;;;;5.90;3.58;;;8.50;99.90;;;;;;4940466;29;20063;-65
2021/11/02 02:18:17;;;;;;;5.70;3.72;;;8.50;99.90;;;;;;4910942;29;20044;-65
2021/11/02 02:21:12;;;;;;;7.18;4.13;;;8.70;99.90;;;;;;4907208;29;20110;-65
2021/11/02 02:23:55;;;;;;;7.95;4.13;;;8.50;99.90;;;;;;4942106;29;20060;-65
2021/11/02 02:26:46;;;;;;;7.63;4.18;;;8.50;99.90;;;;;;4910769;29;20417;-65
2021/11/02 02:29:14;;;;;;;6.38;4.50;;;8.50;99.90;;;;;;4907579;29;20076;-65
2021/11/02 02:31:43;;;;;;;8.23;4.55;;;8.40;99.90;;;;;;4927408;29;20044;-65
2021/11/02 02:34:12;;;;;;;8.38;4.57;;;8.50;99.90;;;;;;4911155;29;20572;-65
2021/11/02 02:36:40;;;;;;;7.55;5.30;;;8.50;99.90;;;;;;4910875;29;20036;-65
2021/11/02 02:39:08;;;;;;;8.40;4.90;;;8.30;99.90;;;;;;4910706;29;20071;-65
2021/11/02 02:41:34;;;;;;;5.68;4.85;;;8.20;99.90;;;;;;4928355;29;20052;-65
2021/11/02 02:44:00;;;;;;;9.60;5.32;;;8.10;99.90;;;;;;4910768;29;20059;-66
2021/11/02 02:46:27;;;;;;;9.20;5.47;;;8.20;99.90;;;;;;4925927;29;20044;-65
2021/11/02 02:48:54;;;;;;;8.32;5.57;;;8.10;99.90;;;;;;4935414;29;20063;-65
2021/11/02 02:51:22;;;;;;;7.25;5.20;;;7.90;99.90;;;;;;4928017;29;20041;-65
2021/11/02 02:53:49;;;;;;;8.90;6.32;;;8.00;99.90;;;;;;4927808;29;20520;-65
2021/11/02 02:56:16;;;;;;;8.45;5.40;;;8.20;99.90;;;;;;4911305;29;20063;-65
2021/11/02 02:58:45;;;;;;;9.07;5.25;;;8.10;99.90;;;;;;4910505;29;20060;-66
2021/11/02 03:01:13;;;;;;;8.88;5.53;;;8.30;99.90;;;;;;4911108;29;20088;-65
2021/11/02 03:03:45;;;;;;;8.38;5.40;;;8.30;99.90;;;;;;4910780;29;20060;-65
2021/11/02 03:06:19;;;;;;;11.30;6.40;;;8.10;99.90;;;;;;4910752;29;20068;-65
2021/11/02 03:08:54;;;;;;;9.38;6.10;;;8.10;99.90;;;;;;4905665;29;20079;-65
2021/11/02 03:11:20;;;;;;;8.10;5.40;;;8.00;99.90;;;;;;4910392;29;20048;-65
2021/11/02 03:13:50;;;;;;;9.15;5.60;;;8.20;99.90;;;;;;4910959;29;20530;-65
2021/11/02 03:16:24;;;;;;;8.52;6.03;;;8.10;99.90;;;;;;4910661;29;20055;-66
2021/11/02 03:48:04;;;;;;;9.52;7.10;;;8.10;99.90;;;;;;4939853;29;20056;-65
2021/11/02 03:54:37;;;;;;;10.63;7.00;;;7.80;99.90;;;;;;4931651;29;20075;-65
2021/11/02 03:57:24;;;;;;;7.45;6.18;;;7.70;99.90;;;;;;4931134;29;20425;-65
2021/11/02 04:36:37;;;;;;;10.27;6.75;;;6.30;99.90;;;;;;4943905;29;20062;-64
2021/11/02 05:58:34;;;;;;;11.55;9.05;;;6.80;99.90;;;;;;4943128;29;20084;-64
2021/11/02 06:01:06;;;;;;;17.45;9.27;;;6.70;99.90;;;;;;4925769;29;20059;-64
2021/11/02 06:30:48;;;;;;;18.42;11.55;;;6.60;99.90;;;;;;4913117;29;20523;-64
2021/11/02 06:50:16;;;;;;;17.38;11.80;;;7.10;99.90;;;;;;4800483;29;20490;-64
2021/11/02 08:47:15;;;;;;;15.27;8.93;;;7.80;99.90;;;;;;4903575;29;19943;-64
2021/11/02 08:49:46;;;;;;;10.85;9.10;;;7.70;99.90;;;;;;4907556;29;20056;-66
2021/11/02 08:52:14;;;;;;;10.52;7.88;;;7.80;99.90;;;;;;4900385;29;20049;-64
2021/11/02 08:54:42;;;;;;;9.82;8.43;;;8.00;99.90;;;;;;4918421;29;20633;-64
2021/11/02 08:57:09;;;;;;;10.40;8.40;;;8.00;99.90;;;;;;4913471;29;20052;-64
2021/11/02 08:59:35;;;;;;;16.60;8.60;;;8.10;99.90;;;;;;4908227;29;20147;-64
2021/11/02 09:02:09;;;;;;;14.00;8.75;;;8.10;99.90;;;;;;4900706;29;20087;-64
2021/11/02 09:04:47;;;;;;;12.30;9.35;;;8.10;99.90;;;;;;4886737;29;20059;-64
2021/11/02 09:07:20;;;;;;;10.65;8.25;;;8.10;99.90;;;;;;4933755;29;20087;-64
2021/11/02 09:09:47;;;;;;;11.93;9.00;;;8.30;99.90;;;;;;4912212;29;20071;-64
2021/11/02 09:12:14;;;;;;;13.57;9.18;;;8.40;99.90;;;;;;4915440;29;20059;-64
2021/11/02 09:14:42;;;;;;;13.98;10.35;;;8.40;99.90;;;;;;4928420;29;20517;-64
2021/11/02 09:17:09;;;;;;;11.63;10.13;;;8.40;99.90;;;;;;4905614;29;20377;-64
2021/11/02 09:19:36;;;;;;;14.77;10.55;;;8.40;99.90;;;;;;4923068;29;20111;-64
2021/11/02 09:22:04;;;;;;;13.27;10.45;;;8.50;99.90;;;;;;4901648;29;20054;-64
2021/11/02 09:24:31;;;;;;;12.10;9.60;;;8.40;99.90;;;;;;4910150;29;20097;-64
2021/11/02 09:26:58;;;;;;;11.23;9.88;;;8.50;99.90;;;;;;4903405;29;20209;-64
2021/11/02 09:29:24;;;;;;;12.40;9.90;;;8.50;99.90;;;;;;4909890;29;20516;-65
2021/11/02 09:31:53;;;;;;;12.18;9.45;;;8.50;99.90;;;;;;4923071;29;20112;-64
2021/11/02 09:34:19;;;;;;;12.25;10.95;;;8.50;99.90;;;;;;4907622;29;20063;-64
2021/11/02 09:37:05;;;;;;;12.32;10.30;;;8.60;99.90;;;;;;4906444;29;20044;-64
2021/11/02 09:39:40;;;;;;;13.10;10.45;;;8.70;99.90;;;;;;4911133;29;20051;-64
2021/11/02 09:42:15;;;;;;;13.40;10.43;;;8.80;99.90;;;;;;4914234;29;20051;-64
2021/11/02 09:44:55;;;;;;;11.20;10.05;;;8.80;99.90;;;;;;4924578;29;20072;-64
2021/11/02 09:48:06;;;;;;;13.38;10.98;;;9.00;99.90;;;;;;4900468;29;20122;-64
2021/11/02 09:51:00;;;;;;;12.18;9.57;;;8.90;99.90;;;;;;4851524;29;20055;-64
2021/11/02 09:53:31;;;;;;;15.63;9.93;;;8.90;99.90;;;;;;4898565;29;20091;-65
2021/11/02 09:56:12;;;;;;;11.57;9.25;;;9.00;99.90;;;;;;4903651;29;20064;-65
2021/11/02 09:59:05;;;;;;;10.60;9.05;;;9.10;99.90;;;;;;4927234;29;20064;-65
2021/11/02 10:01:43;;;;;;;10.50;9.40;;;9.00;99.90;;;;;;4904904;29;20055;-65
2021/11/02 10:04:14;;;;;;;10.82;8.43;;;9.00;99.90;;;;;;4909027;29;20060;-64
2021/11/02 10:07:15;;;;;;;11.48;9.38;;;9.20;99.90;;;;;;4903013;29;20056;-64
2021/11/02 10:09:44;;;;;;;10.50;9.35;;;9.20;99.90;;;;;;4908859;29;20071;-64
2021/11/02 10:12:18;;;;;;;12.25;10.18;;;9.30;99.90;;;;;;4935756;29;20048;-64
2021/11/02 10:15:06;;;;;;;10.77;9.30;;;9.30;99.90;;;;;;4911652;29;20156;-64
2021/11/02 10:18:12;;;;;;;13.88;10.65;;;9.20;99.90;;;;;;4915449;29;20108;-64
2021/11/02 10:20:56;;;;;;;13.43;9.63;;;9.20;99.90;;;;;;4880092;29;20055;-64
2021/11/02 10:24:08;;;;;;;12.90;10.70;;;9.40;99.90;;;;;;4899366;29;20567;-65
2021/11/02 10:27:03;;;;;;;12.95;9.85;;;9.20;99.90;;;;;;4908062;29;20790;-65
2021/11/02 10:29:53;;;;;;;12.25;9.35;;;9.20;99.90;;;;;;4923600;29;20055;-65
2021/11/02 10:32:24;;;;;;;11.15;9.10;;;9.20;99.90;;;;;;4920029;29;20056;-64
2021/11/02 10:34:49;;;;;;;;;;;9.40;99.90;;;;;;4919471;29;20051;-64
2021/11/02 10:37:22;;;;;;;10.80;9.20;;;9.40;99.90;;;;;;4941720;29;19938;-64
2021/11/02 10:40:13;;;;;;;12.73;9.70;;;9.60;99.90;;;;;;4915975;29;20083;-64
2021/11/02 10:43:03;;;;;;;13.73;10.00;;;9.70;99.90;;;;;;4916875;29;20083;-64
2021/11/02 10:45:30;;;;;;;10.45;8.52;;;9.60;99.90;;;;;;4870735;29;20045;-64
2021/11/02 10:48:10;;;;;;;10.65;8.75;;;9.80;99.90;;;;;;4895362;29;20071;-64
2021/11/02 10:50:47;;;;;;;10.43;9.20;;;9.90;99.90;;;;;;4918824;29;20059;-64
2021/11/02 10:53:29;;;;;;;11.25;9.02;;;10.10;99.90;;;;;;4897769;29;20568;-65
2021/11/02 10:56:10;;;;;;;11.00;9.05;;;10.20;99.90;;;;;;4921207;28;20051;-65
2021/11/02 10:58:48;;;;;;;12.73;9.07;;;10.20;99.90;;;;;;4904655;29;20047;-65
2021/11/02 11:01:16;;;;;;;9.25;8.25;;;10.10;99.90;;;;;;4915358;29;20052;-65
2021/11/02 11:03:43;;;;;;;9.95;8.63;;;10.00;99.90;;;;;;4915545;29;20063;-66
2021/11/02 11:06:16;;;;;;;10.85;8.82;;;10.10;99.90;;;;;;4901574;29;20056;-66
2021/11/02 11:08:47;;;;;;;9.52;8.52;;;10.20;99.90;;;;;;4902427;29;20155;-66
2021/11/02 11:11:18;;;;;;;13.15;8.75;;;10.10;99.90;;;;;;4893876;29;20184;-66
2021/11/02 11:13:46;;;;;;;10.90;7.85;;;10.20;99.90;;;;;;4910146;29;20127;-66
2021/11/02 11:16:12;;;;;;;10.63;8.65;;;10.30;99.90;;;;;;4935058;29;20075;-65
2021/11/02 11:19:10;;;;;;;9.10;7.13;;;10.40;99.90;;;;;;4924986;29;20052;-66
2021/11/02 11:21:37;;;;;;;7.70;6.85;;;10.60;99.90;;;;;;4900984;29;20075;-66
2021/11/02 11:24:09;;;;;;;10.20;7.55;;;10.30;99.90;;;;;;4899918;29;20103;-69
2021/11/02 11:26:35;;;;;;;11.23;7.55;;;10.30;99.90;;;;;;4906533;29;20092;-67
2021/11/02 11:29:04;;;;;;;10.48;7.75;;;10.60;99.90;;;;;;4900552;29;20052;-68
2021/11/02 11:31:31;;;;;;;7.88;7.07;;;10.50;99.90;;;;;;4910402;29;20501;-68
2021/11/02 11:34:01;;;;;;;9.23;7.65;;;10.40;99.90;;;;;;4890815;29;20418;-68
2021/11/02 11:36:31;;;;;;;;;;;10.30;99.90;;;;;;4902705;29;20119;-67
2021/11/02 11:39:04;;;;;;;8.02;7.20;;;10.50;99.90;;;;;;4899257;29;20013;-68
2021/11/02 11:41:34;;;;;;;10.00;7.18;;;10.30;99.90;;;;;;4911260;29;20075;-67
2021/11/02 11:44:03;;;;;;;10.68;8.20;;;10.30;99.90;;;;;;4900603;29;20055;-68
2021/11/02 11:46:29;;;;;;;8.98;7.22;;;10.30;99.90;;;;;;4914837;29;20493;-68
2021/11/02 11:48:56;;;;;;;10.80;6.65;;;10.30;99.90;;;;;;4920888;29;20056;-67
2021/11/02 11:51:26;;;;;;;9.38;7.45;;;10.40;99.90;;;;;;4885015;29;20120;-67
2021/11/02 11:54:00;;;;;;;11.18;7.35;;;10.50;99.90;;;;;;4919172;29;20164;-68
2021/11/02 11:56:38;;;;;;;9.63;7.50;;;10.50;99.90;;;;;;4904484;29;20062;-68
2021/11/02 11:59:04;;;;;;;8.40;7.15;;;10.50;99.90;;;;;;4918874;29;20095;-68
2021/11/02 12:01:46;;;;;;;12.30;7.10;;;10.40;99.90;;;;;;4932309;29;20926;-68
2021/11/02 12:04:32;;;;;;;9.27;6.10;;;10.50;99.90;;;;;;4917874;29;20079;-68
2021/11/02 12:07:04;;;;;;;8.18;6.30;;;10.60;99.90;;;;;;4931385;29;20075;-68
2021/11/02 12:09:39;;;;;;;9.05;6.20;;;10.70;99.90;;;;;;4908159;29;20115;-70
2021/11/02 12:12:07;;;;;;;7.88;6.25;;;10.80;99.90;;;;;;4927316;29;20044;-68
2021/11/02 12:14:34;;;;;;;7.50;5.65;;;10.60;99.90;;;;;;4905836;29;20052;-67
2021/11/02 12:17:02;;;;;;;6.95;6.25;;;10.80;99.90;;;;;;4926502;29;20052;-67
2021/11/02 12:19:30;;;;;;;8.40;6.25;;;10.70;99.90;;;;;;4923413;29;20603;-65
2021/11/02 12:22:12;;;;;;;9.32;6.55;;;10.60;99.90;;;;;;4911520;29;20119;-67
2021/11/02 12:24:39;;;;;;;9.38;6.50;;;10.50;99.90;;;;;;4904355;29;20052;-66
2021/11/02 12:27:14;;;;;;;7.82;5.93;;;10.60;99.90;;;;;;4909078;29;20056;-67
2021/11/02 12:29:42;;;;;;;7.40;5.38;;;10.80;99.90;;;;;;4927768;29;20048;-66
2021/11/02 12:32:11;;;;;;;8.07;5.13;;;11.00;99.90;;;;;;4920600;29;20102;-66
2021/11/02 12:34:43;;;;;;;7.65;5.47;;;11.10;99.90;;;;;;4921403;29;20692;-66
2021/11/02 12:37:11;;;;;;;6.15;5.07;;;11.30;99.90;;;;;;4922194;29;20052;-67
2021/11/02 12:39:37;;;;;;;6.50;4.30;;;11.10;99.90;;;;;;4921214;29;20208;-66
2021/11/02 12:42:04;;;;;;;9.23;5.00;;;11.00;99.90;;;;;;4927313;29;20051;-66
2021/11/02 12:44:33;;;;;;;7.18;5.07;;;11.20;99.90;;;;;;4921432;29;20058;-66
2021/11/02 12:47:02;;;;;;;8.10;4.95;;;10.90;99.90;;;;;;4911416;29;20054;-66
2021/11/02 12:49:52;;;;;;;6.60;4.70;;;11.10;99.90;;;;;;4903305;29;20059;-66
2021/11/02 12:52:19;;;;;;;;;;;11.00;99.90;;;;;;4910277;29;20457;-65
2021/11/02 12:55:03;;;;;;;9.40;4.78;;;10.70;99.90;;;;;;4907719;29;19922;-66
2021/11/02 12:57:48;;;;;;;7.35;4.72;;;10.70;99.90;;;;;;4897920;29;20064;-66
2021/11/02 13:00:26;;;;;;;6.95;4.47;;;11.30;99.90;;;;;;4925010;29;20062;-65
2021/11/02 13:02:58;;;;;;;8.15;5.03;;;11.50;99.90;;;;;;4903051;29;20071;-66
2021/11/02 13:05:26;;;;;;;6.43;4.63;;;11.00;99.90;;;;;;4899345;29;20059;-66
2021/11/02 13:08:03;;;;;;;6.20;4.40;;;10.90;99.90;;;;;;4920370;29;20157;-67
2021/11/02 13:10:31;;;;;;;7.43;4.65;;;11.10;99.90;;;;;;4918315;29;20184;-65
2021/11/02 13:13:14;;;;;;;8.20;5.07;;;11.10;99.90;;;;;;4917588;29;20047;-67
2021/11/02 13:15:54;;;;;;;7.75;4.68;;;11.20;99.90;;;;;;4911920;29;20044;-66
2021/11/02 13:18:38;;;;;;;7.18;4.22;;;11.10;99.90;;;;;;4905155;29;20044;-66
2021/11/02 13:21:19;;;;;;;6.05;4.78;;;11.20;99.90;;;;;;4908799;29;20113;-66
2021/11/02 13:23:49;;;;;;;4.90;4.15;;;11.20;99.90;;;;;;4878158;29;20140;-66
2021/11/02 13:26:15;;;;;;;;;;;11.20;99.90;;;;;;4899911;29;20061;-66
2021/11/02 13:28:41;;;;;;;6.65;4.47;;;11.00;99.90;;;;;;4894788;29;20033;-66
2021/11/02 13:31:23;;;;;;;7.35;4.20;;;11.00;99.90;;;;;;4900642;29;20045;-66
2021/11/02 13:34:01;;;;;;;8.82;4.85;;;11.10;99.90;;;;;;4864178;29;20094;-66
2021/11/02 13:36:28;;;;;;;5.05;3.97;;;11.30;99.90;;;;;;4890800;29;20059;-66
2021/11/02 13:39:02;;;;;;;5.88;3.95;;;11.30;99.90;;;;;;4904262;29;20060;-66
2021/11/02 13:41:36;;;;;;;9.93;4.78;;;11.10;99.90;;;;;;4878079;29;20063;-66
2021/11/02 13:44:07;;;;;;;7.35;4.05;;;11.10;99.90;;;;;;4893461;29;20377;-66
2021/11/02 13:46:43;;;;;;;7.57;3.95;;;11.20;99.90;;;;;;4892066;29;20060;-66
2021/11/02 13:49:10;;;;;;;4.55;3.42;;;11.20;99.90;;;;;;4881623;29;20107;-66
2021/11/02 13:51:36;;;;;;;4.85;3.67;;;11.40;99.90;;;;;;4894933;29;20266;-66
2021/11/02 13:54:04;;;;;;;5.97;3.97;;;11.20;99.90;;;;;;4905316;29;20059;-67
2021/11/02 13:56:32;;;;;;;4.35;3.25;;;11.30;99.90;;;;;;4893480;28;20063;-67
2021/11/02 13:58:59;;;;;;;4.20;2.95;;;11.30;99.90;;;;;;4904652;29;20060;-67
2021/11/02 14:01:28;;;;;;;6.53;3.17;;;11.20;99.90;;;;;;4913281;29;20048;-66
2021/11/02 14:04:11;;;;;;;4.40;2.90;;;11.40;99.90;;;;;;4903320;29;20048;-66
2021/11/02 14:06:40;;;;;;;2.88;2.55;;;11.30;99.90;;;;;;4890467;29;20049;-66
2021/11/02 14:09:10;;;;;;;2.70;2.33;;;11.20;99.90;;;;;;4906148;29;20151;-67
2021/11/02 14:11:37;;;;;;;3.47;2.97;;;11.30;99.90;;;;;;4883384;29;20223;-67
2021/11/02 14:14:04;;;;;;;2.88;2.53;;;11.10;99.90;;;;;;4895810;29;20075;-69
2021/11/02 14:16:36;;;;;;;4.35;2.65;;;11.30;99.90;;;;;;4913913;29;20040;-67
2021/11/02 14:19:03;;;;;;;3.47;2.63;;;11.30;99.90;;;;;;4907974;29;20053;-68
2021/11/02 14:21:50;;;;;;;3.10;2.75;;;11.30;99.90;;;;;;4917465;29;20045;-67
2021/11/02 14:24:31;;;;;;;4.88;3.38;;;11.50;99.90;;;;;;4880454;29;20059;-67
2021/11/02 14:26:57;;;;;;;3.95;2.60;;;11.40;99.90;;;;;;4894509;29;20061;-67
2021/11/02 14:29:55;;;;;;;3.10;2.80;;;11.20;99.90;;;;;;4907040;29;20518;-67
2021/11/02 14:32:36;;;;;;;4.93;2.85;;;11.20;99.90;;;;;;4899885;29;20044;-68
2021/11/02 14:35:09;;;;;;;2.90;2.60;;;11.20;99.90;;;;;;4889942;29;20064;-67
2021/11/02 14:37:54;;;;;;;3.60;2.70;;;11.20;99.90;;;;;;4889126;29;20075;-67
2021/11/02 14:40:26;;;;;;;4.13;2.60;;;11.20;99.90;;;;;;4908196;29;20108;-68
2021/11/02 14:42:55;;;;;;;4.60;2.45;;;11.20;99.90;;;;;;4925718;29;20375;-67
2021/11/02 14:45:39;;;;;;;4.65;2.55;;;11.10;99.90;;;;;;4894938;29;20146;-67
2021/11/02 14:48:28;;;;;;;4.65;2.70;;;10.90;99.90;;;;;;4886707;29;20052;-67
2021/11/02 14:50:59;;;;;;;3.50;1.92;;;11.10;99.90;;;;;;4906295;29;20048;-67
2021/11/02 14:53:25;;;;;;;4.22;2.45;;;11.20;99.90;;;;;;4911141;29;20056;-67
2021/11/02 14:55:59;;;;;;;4.25;2.30;;;10.90;99.90;;;;;;4902565;29;20068;-68
2021/11/02 14:58:43;;;;;;;4.10;2.63;;;11.10;99.90;;;;;;4916639;29;20033;-68
2021/11/02 15:01:24;;;;;;;4.53;2.60;;;11.00;99.90;;;;;;4905460;29;20072;-67
2021/11/02 15:03:51;;;;;;;3.60;2.17;;;10.90;99.90;;;;;;4890063;29;20128;-69
2021/11/02 15:06:18;;;;;;;3.92;2.30;;;10.80;99.90;;;;;;4900685;29;20087;-68
2021/11/02 15:08:46;;;;;;;4.13;2.45;;;10.80;99.90;;;;;;4932165;29;20121;-67
2021/11/02 15:11:16;;;;;;;4.00;2.92;;;10.80;99.90;;;;;;4905302;29;20112;-68
2021/11/02 15:13:52;;;;;;;3.20;2.70;;;10.70;99.90;;;;;;4886356;29;20060;-68
2021/11/02 15:16:19;;;;;;;3.85;2.72;;;10.70;99.90;;;;;;4906588;29;20070;-68
2021/11/02 15:18:49;;;;;;;4.55;2.53;;;10.70;99.90;;;;;;4883751;29;20261;-68
2021/11/02 15:21:21;;;;;;;;;;;10.80;99.90;;;;;;4928664;29;20075;-68
2021/11/02 15:23:50;;;;;;;6.70;2.88;;;10.70;99.90;;;;;;4906269;29;20074;-68
2021/11/02 15:26:16;;;;;;;5.90;4.47;;;10.80;99.90;;;;;;4897291;29;20054;-68
2021/11/02 15:28:48;;;;;;;4.35;2.85;;;10.60;99.90;;;;;;4920343;29;20052;-68
2021/11/02 15:31:16;;;;;;;6.65;4.57;;;10.60;99.90;;;;;;4914823;29;20128;-69
2021/11/02 15:33:45;;;;;;;10.07;6.22;;;10.40;99.90;;;;;;4916955;29;20050;-69
2021/11/02 15:36:13;;;;;;;8.77;5.07;;;10.30;99.90;;;;;;4919180;29;20056;-69
2021/11/02 15:38:40;;;;;;;7.32;4.25;;;10.40;99.90;;;;;;4900754;29;20883;-67
2021/11/02 15:41:21;;;;;;;5.80;4.18;;;10.40;99.90;;;;;;4905122;29;20055;-69
2021/11/02 15:43:57;;;;;;;5.15;3.60;;;10.40;99.90;;;;;;4906230;29;20139;-69
2021/11/02 15:46:37;;;;;;;6.13;4.03;;;10.40;99.90;;;;;;4910421;29;20048;-69
2021/11/02 15:49:05;;;;;;;13.57;8.57;;;10.60;99.90;;;;;;4890335;29;20070;-69
2021/11/02 15:51:38;;;;;;;8.10;5.18;;;10.40;99.90;;;;;;4920043;29;20048;-68
2021/11/02 15:54:08;;;;;;;6.65;4.10;;;10.40;99.90;;;;;;4890472;29;20081;-68
2021/11/02 15:56:35;;;;;;;6.20;3.80;;;10.30;99.90;;;;;;4917552;29;20060;-68
2021/11/02 15:59:03;;;;;;;5.63;3.83;;;10.40;99.90;;;;;;4895655;29;20052;-68
2021/11/02 16:01:34;;;;;;;6.72;3.33;;;10.50;99.90;;;;;;4901812;29;20056;-68
2021/11/02 16:04:25;;;;;;;6.32;3.50;;;10.40;99.90;;;;;;4899636;29;20084;-68
2021/11/02 16:07:29;;;;;;;9.85;8.88;;;10.40;99.90;;;;;;4887971;29;20069;-68
2021/11/02 16:09:55;;;;;;;6.22;3.92;;;10.30;99.90;;;;;;4902220;29;20147;-68
2021/11/02 16:12:35;;;;;;;20.23;7.95;;;10.30;99.90;;;;;;4902321;29;20045;-68
2021/11/02 16:15:11;;;;;;;5.03;3.95;;;10.20;99.90;;;;;;4913719;29;20056;-68
2021/11/02 16:17:52;;;;;;;6.07;3.67;;;10.30;99.90;;;;;;4918929;29;20356;-69
2021/11/02 16:20:25;;;;;;;6.47;4.10;;;10.20;99.90;;;;;;4913695;29;20057;-68
2021/11/02 16:22:54;;;;;;;6.80;3.90;;;10.00;99.90;;;;;;4896435;29;20094;-68
2021/11/02 16:25:20;;;;;;;7.32;5.43;;;9.90;99.90;;;;;;4904582;29;20059;-67
2021/11/02 16:28:16;;;;;;;8.90;6.97;;;9.70;99.90;;;;;;4895139;29;20528;-67
2021/11/02 16:31:06;;;;;;;7.68;6.13;;;9.70;99.90;;;;;;4894483;29;20051;-67
2021/11/02 16:33:32;;;;;;;7.05;5.82;;;9.70;99.90;;;;;;4895787;29;20455;-67
2021/11/02 16:36:12;;;;;;;7.28;5.85;;;9.40;99.90;;;;;;4912677;29;20052;-68
2021/11/02 16:38:38;;;;;;;8.75;5.95;;;9.30;99.90;;;;;;4898762;29;20056;-67
2021/11/02 16:41:20;;;;;;;6.07;3.90;;;9.00;99.90;;;;;;4920773;29;20704;-67
2021/11/02 16:44:02;;;;;;;8.45;3.65;;;9.00;99.90;;;;;;4902182;29;20063;-67
2021/11/02 16:46:40;;;;;;;8.02;6.25;;;8.90;99.90;;;;;;4912190;29;20088;-67
2021/11/02 16:49:10;;;;;;;5.93;5.15;;;8.80;99.90;;;;;;4932855;29;20056;-67
2021/11/02 16:51:44;;;;;;;6.05;5.10;;;8.70;99.90;;;;;;4908923;29;20076;-67
2021/11/02 16:54:11;;;;;;;4.85;3.10;;;8.60;99.90;;;;;;4903807;29;20040;-67
2021/11/02 16:56:58;;;;;;;4.90;3.90;;;8.40;99.90;;;;;;4926160;29;20059;-67
2021/11/02 16:59:41;;;;;;;4.93;3.10;;;8.30;99.90;;;;;;4923173;29;20048;-68
2021/11/02 17:02:29;;;;;;;6.80;4.93;;;8.20;99.90;;;;;;4915961;29;20063;-68
2021/11/02 17:05:04;;;;;;;9.82;5.57;;;8.10;99.90;;;;;;4890013;29;20479;-68
2021/11/02 17:08:04;;;;;;;6.28;4.38;;;8.00;99.90;;;;;;4914899;29;20063;-68
2021/11/02 17:10:39;;;;;;;4.75;4.18;;;8.10;99.90;;;;;;4903944;29;20052;-68
2021/11/02 17:13:26;;;;;;;5.35;3.80;;;8.00;99.90;;;;;;4921430;29;20063;-69
2021/11/02 17:16:02;;;;;;;5.10;4.60;;;8.00;99.90;;;;;;4907303;29;20052;-69
2021/11/02 17:18:45;;;;;;;6.03;4.28;;;8.10;99.90;;;;;;4920967;29;20109;-69
2021/11/02 17:21:13;;;;;;;4.85;4.30;;;8.10;99.90;;;;;;4919710;29;20056;-68
2021/11/02 17:23:42;;;;;;;5.97;4.80;;;8.10;99.90;;;;;;4923565;29;20464;-69
2021/11/02 17:26:10;;;;;;;7.82;5.47;;;8.10;99.90;;;;;;4908635;29;20055;-68
2021/11/02 17:28:37;;;;;;;9.27;8.02;;;8.00;99.90;;;;;;4905623;29;20171;-69
2021/11/02 17:31:07;;;;;;;11.90;10.00;;;8.10;99.90;;;;;;4907844;29;20056;-69
2021/11/02 17:33:36;;;;;;;12.07;9.90;;;8.10;99.90;;;;;;4888194;29;20040;-69
2021/11/02 17:36:05;;;;;;;14.68;11.65;;;8.10;99.90;;;;;;4906467;29;20087;-69
2021/11/02 17:38:32;;;;;;;10.90;9.80;;;8.20;99.90;;;;;;4904448;29;20048;-69
2021/11/02 17:41:02;;;;;;;10.52;8.25;;;8.20;99.90;;;;;;4895192;29;20052;-69
2021/11/02 17:43:28;;;;;;;9.00;7.60;;;8.30;99.90;;;;;;4898302;29;20052;-68
2021/11/02 17:45:54;;;;;;;9.20;7.53;;;8.30;99.90;;;;;;4893891;29;20048;-69
2021/11/02 17:48:21;;;;;;;8.27;6.72;;;8.40;99.90;;;;;;4901040;29;20048;-68
2021/11/02 17:50:47;;;;;;;9.68;6.18;;;8.40;99.90;;;;;;4888863;29;20487;-68
2021/11/02 17:53:15;;;;;;;7.60;5.38;;;8.50;99.90;;;;;;4896015;29;20082;-69
2021/11/02 17:55:45;;;;;;;6.95;5.72;;;8.50;99.90;;;;;;4906422;29;20071;-69
2021/11/02 17:58:11;;;;;;;;;;;8.50;99.90;;;;;;4891296;29;20040;-69
2021/11/02 18:00:37;;;;;;;5.47;4.97;;;8.60;99.90;;;;;;4918931;29;19933;-68
2021/11/02 18:03:04;;;;;;;6.22;4.90;;;8.60;99.90;;;;;;4886204;29;20053;-68
2021/11/02 18:05:31;;;;;;;5.75;4.85;;;8.60;99.90;;;;;;4899469;29;20525;-69
2021/11/02 18:08:00;;;;;;;6.63;5.55;;;8.60;99.90;;;;;;4915937;29;20151;-69
2021/11/02 18:10:30;;;;;;;10.00;8.35;;;8.60;99.90;;;;;;4896796;29;20091;-69
2021/11/02 18:12:56;;;;;;;8.93;7.90;;;8.70;99.90;;;;;;4903798;29;20527;-70
2021/11/02 18:15:23;;;;;;;8.25;6.90;;;8.60;99.90;;;;;;4916283;29;20052;-68
2021/11/02 18:17:50;;;;;;;14.88;10.77;;;8.60;99.90;;;;;;4901680;29;20078;-69
2021/11/02 18:20:19;;;;;;;19.90;10.20;;;8.60;99.90;;;;;;4885522;29;20063;-68
2021/11/02 18:22:46;;;;;;;13.73;8.70;;;8.60;99.90;;;;;;4902254;29;20306;-68
2021/11/02 18:25:17;;;;;;;9.25;7.90;;;8.70;99.90;;;;;;4911719;29;20056;-69
2021/11/02 18:27:44;;;;;;;12.02;8.27;;;8.70;99.90;;;;;;4896343;29;20036;-69